createdAt,value
2024-02-05T00:00:34.255Z,645.00
2024-02-05T00:01:34.301Z,652.00
2024-02-05T00:02:34.315Z,658.00
2024-02-05T00:03:34.279Z,654.00
2024-02-05T00:04:34.354Z,653.00
2024-02-05T00:05:34.301Z,655.00
2024-02-05T00:06:34.345Z,658.00
2024-02-05T00:07:34.510Z,661.00
2024-02-05T00:08:34.393Z,658.00
2024-02-05T00:09:34.397Z,661.00
2024-02-05T00:10:34.410Z,666.00
2024-02-05T00:11:34.492Z,663.00
2024-02-05T00:12:34.579Z,664.00
2024-02-05T00:13:34.489Z,664.00
2024-02-05T00:14:34.502Z,664.00
2024-02-05T00:15:34.588Z,662.00
2024-02-05T00:16:34.573Z,667.00
2024-02-05T00:17:34.674Z,662.00
2024-02-05T00:18:34.669Z,661.00
2024-02-05T00:19:34.653Z,660.00
2024-02-05T00:20:34.595Z,673.00
2024-02-05T00:21:34.665Z,675.00
2024-02-05T00:22:34.664Z,664.00
2024-02-05T00:23:34.662Z,677.00
2024-02-05T00:24:34.735Z,676.00
2024-02-05T00:25:34.700Z,664.00
2024-02-05T00:26:34.672Z,677.00
2024-02-05T00:27:34.753Z,664.00
2024-02-05T00:28:34.712Z,674.00
2024-02-05T00:29:34.705Z,654.00
2024-02-05T00:30:34.800Z,664.00
2024-02-05T00:31:34.715Z,660.00
2024-02-05T00:32:34.743Z,660.00
2024-02-05T00:33:34.856Z,660.00
2024-02-05T00:34:34.803Z,666.00
2024-02-05T00:35:34.750Z,669.00
2024-02-05T00:36:34.873Z,661.00
2024-02-05T00:37:34.807Z,676.00
2024-02-05T00:38:34.822Z,673.00
2024-02-05T00:39:34.963Z,659.00
2024-02-05T00:40:34.943Z,660.00
2024-02-05T00:41:34.985Z,674.00
2024-02-05T00:42:35.162Z,660.00
2024-02-05T00:43:35.090Z,661.00
2024-02-05T00:44:35.162Z,674.00
2024-02-05T00:45:35.306Z,666.00
2024-02-05T00:46:35.325Z,667.00
2024-02-05T00:47:35.495Z,660.00
2024-02-05T00:48:35.578Z,657.00
2024-02-05T00:49:35.666Z,658.00
2024-02-05T00:50:35.601Z,673.00
2024-02-05T00:51:35.779Z,656.00
2024-02-05T00:52:35.765Z,657.00
2024-02-05T00:53:35.856Z,658.00
2024-02-05T00:54:35.917Z,670.00
2024-02-05T00:55:35.940Z,657.00
2024-02-05T00:56:36.009Z,655.00
2024-02-05T00:57:36.111Z,655.00
2024-02-05T00:58:36.177Z,660.00
2024-02-05T00:59:36.199Z,665.00
2024-02-05T01:00:36.306Z,655.00
2024-02-05T01:01:36.462Z,658.00
2024-02-05T01:02:36.439Z,656.00
2024-02-05T01:03:36.491Z,652.00
2024-02-05T01:04:36.720Z,655.00
2024-02-05T01:05:36.755Z,661.00
2024-02-05T01:06:36.798Z,653.00
2024-02-05T01:07:36.784Z,654.00
2024-02-05T01:08:36.767Z,652.00
2024-02-05T01:09:36.904Z,653.00
2024-02-05T01:10:36.845Z,653.00
2024-02-05T01:11:36.861Z,654.00
2024-02-05T01:12:36.952Z,656.00
2024-02-05T01:13:36.972Z,655.00
2024-02-05T01:14:37.082Z,655.00
2024-02-05T01:15:37.232Z,651.00
2024-02-05T01:16:37.180Z,654.00
2024-02-05T01:17:37.284Z,649.00
2024-02-05T01:18:37.397Z,652.00
2024-02-05T01:19:37.446Z,650.00
2024-02-05T01:20:37.353Z,647.00
2024-02-05T01:21:37.447Z,645.00
2024-02-05T01:22:37.451Z,649.00
2024-02-05T01:23:37.505Z,646.00
2024-02-05T01:24:37.581Z,645.00
2024-02-05T01:25:37.554Z,641.00
2024-02-05T01:26:37.636Z,648.00
2024-02-05T01:27:37.736Z,642.00
2024-02-05T01:28:37.711Z,642.00
2024-02-05T01:29:37.794Z,645.00
2024-02-05T01:30:37.861Z,644.00
2024-02-05T01:31:37.870Z,642.00
2024-02-05T01:32:37.896Z,648.00
2024-02-05T01:33:38.061Z,641.00
2024-02-05T01:34:38.070Z,645.00
2024-02-05T01:35:38.043Z,643.00
2024-02-05T01:36:38.117Z,644.00
2024-02-05T01:37:38.209Z,642.00
2024-02-05T01:38:38.151Z,643.00
2024-02-05T01:39:38.234Z,649.00
2024-02-05T01:40:38.267Z,641.00
2024-02-05T01:41:38.284Z,644.00
2024-02-05T01:42:38.385Z,641.00
2024-02-05T01:43:38.362Z,641.00
2024-02-05T01:44:38.398Z,642.00
2024-02-05T01:45:38.513Z,643.00
2024-02-05T01:46:38.526Z,643.00
2024-02-05T01:47:38.608Z,640.00
2024-02-05T01:48:38.743Z,643.00
2024-02-05T01:49:38.731Z,643.00
2024-02-05T01:50:38.668Z,642.00
2024-02-05T01:51:38.756Z,643.00
2024-02-05T01:52:38.802Z,644.00
2024-02-05T01:53:38.848Z,642.00
2024-02-05T01:54:38.885Z,644.00
2024-02-05T01:55:38.913Z,642.00
2024-02-05T01:56:38.928Z,642.00
2024-02-05T01:57:39.057Z,647.00
2024-02-05T01:58:39.014Z,640.00
2024-02-05T01:59:39.099Z,646.00
2024-02-05T02:00:39.176Z,645.00
2024-02-05T02:01:39.184Z,644.00
2024-02-05T02:02:39.373Z,639.00
2024-02-05T02:03:39.335Z,640.00
2024-02-05T02:04:39.408Z,643.00
2024-02-05T02:05:39.326Z,640.00
2024-02-05T02:06:39.370Z,645.00
2024-02-05T02:07:39.415Z,638.00
2024-02-05T02:08:39.553Z,643.00
2024-02-05T02:09:39.555Z,642.00
2024-02-05T02:10:39.605Z,643.00
2024-02-05T02:11:39.509Z,646.00
2024-02-05T02:12:39.546Z,646.00
2024-02-05T02:13:39.552Z,640.00
2024-02-05T02:14:39.667Z,646.00
2024-02-05T02:15:39.669Z,643.00
2024-02-05T02:16:39.646Z,647.00
2024-02-05T02:17:39.714Z,644.00
2024-02-05T02:18:39.919Z,643.00
2024-02-05T02:19:39.815Z,643.00
2024-02-05T02:20:39.796Z,649.00
2024-02-05T02:21:39.844Z,644.00
2024-02-05T02:22:39.857Z,647.00
2024-02-05T02:23:39.893Z,646.00
2024-02-05T02:24:39.886Z,643.00
2024-02-05T02:25:39.903Z,644.00
2024-02-05T02:26:39.961Z,646.00
2024-02-05T02:27:39.995Z,648.00
2024-02-05T02:28:40.022Z,645.00
2024-02-05T02:29:39.988Z,648.00
2024-02-05T02:30:40.079Z,645.00
2024-02-05T02:31:40.107Z,649.00
2024-02-05T02:32:40.095Z,650.00
2024-02-05T02:33:40.162Z,647.00
2024-02-05T02:34:40.180Z,650.00
2024-02-05T02:35:40.134Z,644.00
2024-02-05T02:36:40.196Z,646.00
2024-02-05T02:37:40.235Z,647.00
2024-02-05T02:38:40.192Z,648.00
2024-02-05T02:39:40.211Z,650.00
2024-02-05T02:40:40.230Z,652.00
2024-02-05T02:41:40.269Z,649.00
2024-02-05T02:42:40.317Z,651.00
2024-02-05T02:43:40.309Z,655.00
2024-02-05T02:44:40.321Z,648.00
2024-02-05T02:45:40.414Z,655.00
2024-02-05T02:46:40.423Z,650.00
2024-02-05T02:47:40.484Z,652.00
2024-02-05T02:48:40.495Z,651.00
2024-02-05T02:49:40.462Z,650.00
2024-02-05T02:50:40.482Z,654.00
2024-02-05T02:51:40.519Z,650.00
2024-02-05T02:52:40.545Z,652.00
2024-02-05T02:53:40.550Z,653.00
2024-02-05T02:54:40.634Z,655.00
2024-02-05T02:55:40.634Z,651.00
2024-02-05T02:56:40.665Z,652.00
2024-02-05T02:57:40.664Z,649.00
2024-02-05T02:58:40.708Z,653.00
2024-02-05T02:59:40.672Z,652.00
2024-02-05T03:00:40.805Z,653.00
2024-02-05T03:01:40.846Z,654.00
2024-02-05T03:02:40.810Z,650.00
2024-02-05T03:03:41.001Z,649.00
2024-02-05T03:04:40.844Z,657.00
2024-02-05T03:05:40.840Z,652.00
2024-02-05T03:06:40.911Z,657.00
2024-02-05T03:07:40.865Z,654.00
2024-02-05T03:08:40.888Z,650.00
2024-02-05T03:09:41.045Z,651.00
2024-02-05T03:10:40.912Z,650.00
2024-02-05T03:11:40.986Z,651.00
2024-02-05T03:12:41.061Z,653.00
2024-02-05T03:13:40.949Z,655.00
2024-02-05T03:14:40.996Z,649.00
2024-02-05T03:15:41.042Z,652.00
2024-02-05T03:16:41.011Z,655.00
2024-02-05T03:17:41.066Z,653.00
2024-02-05T03:18:41.145Z,649.00
2024-02-05T03:19:41.155Z,653.00
2024-02-05T03:20:41.116Z,654.00
2024-02-05T03:21:41.175Z,651.00
2024-02-05T03:22:41.224Z,655.00
2024-02-05T03:23:41.199Z,653.00
2024-02-05T03:24:41.234Z,656.00
2024-02-05T03:25:41.375Z,658.00
2024-02-05T03:26:41.255Z,656.00
2024-02-05T03:27:41.357Z,657.00
2024-02-05T03:28:41.301Z,655.00
2024-02-05T03:29:41.317Z,659.00
2024-02-05T03:30:41.438Z,655.00
2024-02-05T03:31:41.435Z,658.00
2024-02-05T03:32:41.411Z,660.00
2024-02-05T03:33:41.469Z,657.00
2024-02-05T03:34:41.571Z,659.00
2024-02-05T03:35:41.445Z,660.00
2024-02-05T03:36:41.613Z,661.00
2024-02-05T03:37:41.526Z,662.00
2024-02-05T03:38:41.554Z,661.00
2024-02-05T03:39:41.572Z,663.00
2024-02-05T03:40:41.633Z,662.00
2024-02-05T03:41:41.623Z,657.00
2024-02-05T03:42:41.685Z,663.00
2024-02-05T03:43:41.659Z,662.00
2024-02-05T03:44:41.718Z,662.00
2024-02-05T03:45:41.861Z,664.00
2024-02-05T03:46:41.783Z,664.00
2024-02-05T03:47:41.865Z,662.00
2024-02-05T03:48:41.910Z,664.00
2024-02-05T03:49:41.962Z,664.00
2024-02-05T03:50:41.910Z,672.00
2024-02-05T03:51:42.018Z,665.00
2024-02-05T03:52:41.973Z,668.00
2024-02-05T03:53:42.009Z,666.00
2024-02-05T03:54:42.116Z,668.00
2024-02-05T03:55:42.097Z,666.00
2024-02-05T03:56:45.554Z,664.00
2024-02-05T03:57:42.196Z,665.00
2024-02-05T03:58:42.142Z,665.00
2024-02-05T03:59:42.109Z,665.00
2024-02-05T04:00:42.190Z,666.00
2024-02-05T04:01:42.191Z,667.00
2024-02-05T04:02:42.117Z,668.00
2024-02-05T04:03:42.232Z,665.00
2024-02-05T04:04:42.169Z,673.00
2024-02-05T04:05:42.142Z,668.00
2024-02-05T04:06:42.181Z,670.00
2024-02-05T04:07:42.157Z,668.00
2024-02-05T04:08:42.191Z,666.00
2024-02-05T04:09:42.215Z,666.00
2024-02-05T04:10:42.148Z,666.00
2024-02-05T04:11:42.145Z,666.00
2024-02-05T04:12:42.259Z,664.00
2024-02-05T04:13:42.162Z,664.00
2024-02-05T04:14:42.190Z,676.00
2024-02-05T04:15:44.404Z,666.00
2024-02-05T04:16:42.163Z,666.00
2024-02-05T04:17:42.193Z,666.00
2024-02-05T04:18:42.182Z,666.00
2024-02-05T04:19:42.261Z,665.00
2024-02-05T04:20:42.148Z,663.00
2024-02-05T04:21:42.206Z,658.00
2024-02-05T04:22:42.165Z,657.00
2024-02-05T04:23:42.194Z,659.00
2024-02-05T04:24:42.239Z,654.00
2024-02-05T04:25:42.173Z,652.00
2024-02-05T04:26:42.221Z,649.00
2024-02-05T04:27:42.202Z,651.00
2024-02-05T04:28:42.167Z,654.00
2024-02-05T04:29:42.192Z,649.00
2024-02-05T04:30:42.333Z,647.00
2024-02-05T04:31:42.187Z,643.00
2024-02-05T04:32:42.201Z,645.00
2024-02-05T04:33:42.459Z,642.00
2024-02-05T04:34:42.294Z,647.00
2024-02-05T04:35:42.196Z,647.00
2024-02-05T04:36:42.211Z,644.00
2024-02-05T04:37:42.198Z,646.00
2024-02-05T04:38:42.196Z,644.00
2024-02-05T04:39:42.188Z,638.00
2024-02-05T04:40:42.168Z,642.00
2024-02-05T04:41:42.218Z,637.00
2024-02-05T04:42:42.218Z,636.00
2024-02-05T04:43:42.205Z,639.00
2024-02-05T04:44:42.244Z,635.00
2024-02-05T04:45:42.200Z,637.00
2024-02-05T04:46:42.208Z,636.00
2024-02-05T04:47:42.225Z,632.00
2024-02-05T04:48:42.385Z,634.00
2024-02-05T04:49:49.715Z,600.00
2024-02-05T04:50:49.688Z,600.00
2024-02-05T04:51:49.705Z,600.00
2024-02-05T04:52:49.705Z,600.00
2024-02-05T04:53:49.713Z,600.00
2024-02-05T04:54:49.751Z,602.00
2024-02-05T04:55:49.737Z,600.00
2024-02-05T04:56:49.680Z,602.00
2024-02-05T04:57:49.976Z,604.00
2024-02-05T04:58:49.717Z,603.00
2024-02-05T04:59:49.705Z,604.00
2024-02-05T05:00:49.717Z,606.00
2024-02-05T05:01:49.730Z,606.00
2024-02-05T05:02:49.676Z,609.00
2024-02-05T05:03:49.783Z,604.00
2024-02-05T05:04:49.740Z,606.00
2024-02-05T05:05:49.722Z,604.00
2024-02-05T05:06:49.771Z,614.00
2024-02-05T05:07:49.837Z,607.00
2024-02-05T05:08:49.805Z,611.00
2024-02-05T05:09:49.878Z,615.00
2024-02-05T05:10:49.924Z,608.00
2024-02-05T05:11:49.999Z,606.00
2024-02-05T05:12:50.049Z,607.00
2024-02-05T05:13:50.114Z,608.00
2024-02-05T05:14:50.175Z,615.00
2024-02-05T05:15:50.288Z,614.00
2024-02-05T05:16:50.264Z,613.00
2024-02-05T05:17:50.447Z,614.00
2024-02-05T05:18:50.493Z,615.00
2024-02-05T05:19:50.517Z,612.00
2024-02-05T05:20:50.462Z,614.00
2024-02-05T05:21:50.538Z,614.00
2024-02-05T05:22:50.590Z,617.00
2024-02-05T05:23:50.650Z,616.00
2024-02-05T05:24:50.689Z,613.00
2024-02-05T05:25:50.752Z,615.00
2024-02-05T05:26:50.781Z,618.00
2024-02-05T05:27:50.930Z,614.00
2024-02-05T05:28:50.898Z,621.00
2024-02-05T05:29:50.943Z,616.00
2024-02-05T05:30:51.022Z,617.00
2024-02-05T05:31:51.019Z,616.00
2024-02-05T05:32:51.097Z,615.00
2024-02-05T05:33:51.199Z,613.00
2024-02-05T05:34:51.232Z,616.00
2024-02-05T05:35:51.231Z,615.00
2024-02-05T05:36:51.319Z,615.00
2024-02-05T05:37:51.360Z,612.00
2024-02-05T05:38:51.393Z,612.00
2024-02-05T05:39:51.456Z,610.00
2024-02-05T05:40:51.489Z,608.00
2024-02-05T05:41:51.500Z,611.00
2024-02-05T05:42:51.603Z,606.00
2024-02-05T05:43:51.656Z,603.00
2024-02-05T05:44:51.697Z,606.00
2024-02-05T05:45:51.806Z,604.00
2024-02-05T05:46:51.797Z,606.00
2024-02-05T05:47:51.885Z,605.00
2024-02-05T05:48:51.973Z,609.00
2024-02-05T05:49:52.039Z,611.00
2024-02-05T05:50:52.023Z,609.00
2024-02-05T05:51:52.067Z,603.00
2024-02-05T05:52:52.126Z,610.00
2024-02-05T05:53:52.166Z,612.00
2024-02-05T05:54:52.207Z,608.00
2024-02-05T05:55:52.245Z,613.00
2024-02-05T05:56:52.294Z,608.00
2024-02-05T05:57:53.595Z,616.00
2024-02-05T05:58:52.417Z,606.00
2024-02-05T05:59:52.448Z,612.00
2024-02-05T06:01:15.100Z,613.00
2024-02-05T06:01:52.624Z,613.00
2024-02-05T06:02:52.533Z,614.00
2024-02-05T06:03:52.541Z,614.00
2024-02-05T06:04:52.581Z,618.00
2024-02-05T06:05:52.525Z,620.00
2024-02-05T06:06:52.649Z,620.00
2024-02-05T06:07:52.563Z,619.00
2024-02-05T06:08:52.509Z,617.00
2024-02-05T06:09:52.552Z,618.00
2024-02-05T06:10:52.528Z,617.00
2024-02-05T06:11:52.542Z,619.00
2024-02-05T06:12:52.612Z,618.00
2024-02-05T06:13:52.634Z,619.00
2024-02-05T06:14:52.558Z,616.00
2024-02-05T06:15:52.518Z,621.00
2024-02-05T06:16:52.552Z,620.00
2024-02-05T06:17:52.552Z,617.00
2024-02-05T06:18:52.714Z,621.00
2024-02-05T06:19:52.624Z,620.00
2024-02-05T06:20:52.648Z,619.00
2024-02-05T06:21:52.838Z,620.00
2024-02-05T06:22:52.780Z,620.00
2024-02-05T06:23:52.780Z,621.00
2024-02-05T06:24:52.864Z,623.00
2024-02-05T06:25:52.901Z,622.00
2024-02-05T06:26:52.951Z,624.00
2024-02-05T06:27:52.990Z,625.00
2024-02-05T06:28:53.019Z,625.00
2024-02-05T06:29:53.023Z,624.00
2024-02-05T06:30:53.131Z,629.00
2024-02-05T06:31:53.188Z,630.00
2024-02-05T06:32:53.301Z,628.00
2024-02-05T06:33:53.393Z,629.00
2024-02-05T06:34:53.376Z,626.00
2024-02-05T06:35:53.409Z,624.00
2024-02-05T06:36:53.574Z,625.00
2024-02-05T06:37:53.954Z,622.00
2024-02-05T06:38:53.907Z,623.00
2024-02-05T06:39:53.573Z,625.00
2024-02-05T06:40:54.367Z,622.00
2024-02-05T06:41:53.630Z,624.00
2024-02-05T06:42:53.733Z,617.00
2024-02-05T06:43:53.885Z,623.00
2024-02-05T06:44:53.805Z,631.00
2024-02-05T06:46:17.554Z,637.00
2024-02-05T06:46:55.486Z,638.00
2024-02-05T06:47:54.061Z,639.00
2024-02-05T06:48:55.197Z,644.00
2024-02-05T06:49:54.010Z,654.00
2024-02-05T06:50:53.993Z,693.00
2024-02-05T06:51:53.933Z,785.00
2024-02-05T06:52:53.840Z,847.00
2024-02-05T06:53:53.952Z,856.00
2024-02-05T06:54:53.955Z,892.00
2024-02-05T06:55:53.908Z,943.00
2024-02-05T06:56:53.791Z,979.00
2024-02-05T06:57:53.926Z,1012.00
2024-02-05T06:58:53.934Z,1032.00
2024-02-05T06:59:53.817Z,1054.00
2024-02-05T07:00:53.868Z,1082.00
2024-02-05T07:01:54.000Z,1112.00
2024-02-05T07:02:53.822Z,1136.00
2024-02-05T07:03:54.115Z,1170.00
2024-02-05T07:04:54.161Z,1195.00
2024-02-05T07:05:53.845Z,1202.00
2024-02-05T07:06:53.975Z,1226.00
2024-02-05T07:07:53.956Z,1256.00
2024-02-05T07:08:54.194Z,1264.00
2024-02-05T07:09:53.949Z,1283.00
2024-02-05T07:10:54.243Z,1328.00
2024-02-05T07:11:53.980Z,1346.00
2024-02-05T07:12:54.180Z,1353.00
2024-02-05T07:13:53.969Z,1315.00
2024-02-05T07:14:54.210Z,1305.00
2024-02-05T07:15:54.253Z,1289.00
2024-02-05T07:16:54.095Z,1301.00
2024-02-05T07:17:54.070Z,1276.00
2024-02-05T07:18:54.029Z,1251.00
2024-02-05T07:19:54.071Z,1249.00
2024-02-05T07:20:54.012Z,1263.00
2024-02-05T07:21:54.281Z,1282.00
2024-02-05T07:22:54.054Z,1300.00
2024-02-05T07:23:54.077Z,1315.00
2024-02-05T07:24:54.152Z,1323.00
2024-02-05T07:25:54.218Z,1334.00
2024-02-05T07:26:54.265Z,1344.00
2024-02-05T07:27:54.354Z,1365.00
2024-02-05T07:28:54.419Z,1368.00
2024-02-05T07:29:54.564Z,1379.00
2024-02-05T07:30:54.541Z,1393.00
2024-02-05T07:31:55.360Z,1411.00
2024-02-05T07:32:54.735Z,1423.00
2024-02-05T07:33:54.759Z,1435.00
2024-02-05T07:34:54.853Z,1448.00
2024-02-05T07:35:55.382Z,1463.00
2024-02-05T07:36:54.943Z,1512.00
2024-02-05T07:37:55.320Z,1573.00
2024-02-05T07:38:55.786Z,1564.00
2024-02-05T07:39:55.075Z,1549.00
2024-02-05T07:40:55.166Z,1551.00
2024-02-05T07:41:55.204Z,1529.00
2024-02-05T07:42:55.233Z,1533.00
2024-02-05T07:43:55.373Z,1520.00
2024-02-05T07:44:55.361Z,1520.00
2024-02-05T07:45:55.431Z,1521.00
2024-02-05T07:46:55.419Z,1497.00
2024-02-05T07:47:55.491Z,1498.00
2024-02-05T07:48:55.549Z,1500.00
2024-02-05T07:49:55.603Z,1514.00
2024-02-05T07:50:55.635Z,1520.00
2024-02-05T07:51:55.475Z,1550.00
2024-02-05T07:52:55.429Z,1550.00
2024-02-05T07:53:55.916Z,1550.00
2024-02-05T07:54:55.626Z,1574.00
2024-02-05T07:55:55.433Z,1586.00
2024-02-05T07:56:55.429Z,1587.00
2024-02-05T07:57:55.491Z,1609.00
2024-02-05T07:58:55.900Z,1625.00
2024-02-05T07:59:55.444Z,1611.00
2024-02-05T08:00:55.528Z,1623.00
2024-02-05T08:01:55.564Z,1607.00
2024-02-05T08:02:55.566Z,1595.00
2024-02-05T08:03:55.779Z,1579.00
2024-02-05T08:04:55.891Z,1564.00
2024-02-05T08:05:55.778Z,1549.00
2024-02-05T08:06:55.845Z,1506.00
2024-02-05T08:07:56.039Z,1478.00
2024-02-05T08:08:55.822Z,1436.00
2024-02-05T08:09:56.261Z,1420.00
2024-02-05T08:10:55.880Z,1401.00
2024-02-05T08:11:55.875Z,1367.00
2024-02-05T08:12:55.923Z,1326.00
2024-02-05T08:13:55.891Z,1306.00
2024-02-05T08:14:55.915Z,1285.00
2024-02-05T08:15:56.077Z,1267.00
2024-02-05T08:16:55.989Z,1274.00
2024-02-05T08:17:56.100Z,1289.00
2024-02-05T08:18:56.205Z,1290.00
2024-02-05T08:19:56.271Z,1303.00
2024-02-05T08:20:56.287Z,1311.00
2024-02-05T08:21:56.382Z,1324.00
2024-02-05T08:22:56.442Z,1324.00
2024-02-05T08:23:56.656Z,1346.00
2024-02-05T08:24:56.773Z,1337.00
2024-02-05T08:25:56.893Z,1348.00
2024-02-05T08:26:56.729Z,1364.00
2024-02-05T08:27:56.693Z,1379.00
2024-02-05T08:28:56.756Z,1385.00
2024-02-05T08:29:56.771Z,1384.00
2024-02-05T08:30:56.890Z,1394.00
2024-02-05T08:31:56.893Z,1399.00
2024-02-05T08:32:57.299Z,1436.00
2024-02-05T08:33:57.513Z,1500.00
2024-02-05T08:34:57.153Z,1572.00
2024-02-05T08:35:57.118Z,1627.00
2024-02-05T08:36:57.331Z,1610.00
2024-02-05T08:37:57.357Z,1598.00
2024-02-05T08:38:57.441Z,1584.00
2024-02-05T08:39:57.401Z,1561.00
2024-02-05T08:40:57.404Z,1605.00
2024-02-05T08:41:57.471Z,1572.00
2024-02-05T08:42:57.551Z,1551.00
2024-02-05T08:43:57.579Z,1547.00
2024-02-05T08:45:00.301Z,1535.00
2024-02-05T08:45:57.632Z,1523.00
2024-02-05T08:46:57.653Z,1504.00
2024-02-05T08:47:57.775Z,1493.00
2024-02-05T08:48:57.758Z,1514.00
2024-02-05T08:49:57.873Z,1503.00
2024-02-05T08:50:57.680Z,1487.00
2024-02-05T08:51:57.689Z,1474.00
2024-02-05T08:52:57.640Z,1477.00
2024-02-05T08:53:57.624Z,1484.00
2024-02-05T08:54:57.658Z,1457.00
2024-02-05T08:55:57.664Z,1459.00
2024-02-05T08:56:57.671Z,1458.00
2024-02-05T08:57:57.671Z,1465.00
2024-02-05T08:58:57.623Z,1470.00
2024-02-05T08:59:57.625Z,1473.00
2024-02-05T09:00:57.726Z,1472.00
2024-02-05T09:01:57.815Z,1475.00
2024-02-05T09:02:57.727Z,1486.00
2024-02-05T09:03:57.727Z,1480.00
2024-02-05T09:04:57.689Z,1468.00
2024-02-05T09:05:57.787Z,1468.00
2024-02-05T09:06:57.697Z,1457.00
2024-02-05T09:07:57.693Z,1466.00
2024-02-05T09:08:57.640Z,1461.00
2024-02-05T09:09:57.703Z,1489.00
2024-02-05T09:10:57.636Z,1511.00
2024-02-05T09:12:05.476Z,1519.00
2024-02-05T09:12:58.688Z,1519.00
2024-02-05T09:13:57.668Z,1513.00
2024-02-05T09:14:57.674Z,1514.00
2024-02-05T09:15:57.725Z,1520.00
2024-02-05T09:16:57.662Z,1506.00
2024-02-05T09:17:57.680Z,1516.00
2024-02-05T09:18:58.067Z,1503.00
2024-02-05T09:19:57.782Z,1499.00
2024-02-05T09:20:57.645Z,1493.00
2024-02-05T09:21:57.774Z,1503.00
2024-02-05T09:22:57.646Z,1490.00
2024-02-05T09:23:57.672Z,1453.00
2024-02-05T09:24:57.706Z,1428.00
2024-02-05T09:25:57.750Z,1398.00
2024-02-05T09:26:57.822Z,1369.00
2024-02-05T09:27:57.976Z,1334.00
2024-02-05T09:28:58.455Z,1307.00
2024-02-05T09:29:58.042Z,1284.00
2024-02-05T09:31:06.246Z,1241.00
2024-02-05T09:31:59.203Z,1221.00
2024-02-05T09:32:58.187Z,1212.00
2024-02-05T09:33:58.480Z,1180.00
2024-02-05T09:34:58.171Z,1170.00
2024-02-05T09:35:58.127Z,1166.00
2024-02-05T09:36:58.144Z,1145.00
2024-02-05T09:37:58.134Z,1146.00
2024-02-05T09:38:58.924Z,1155.00
2024-02-05T09:39:58.172Z,1130.00
2024-02-05T09:40:58.105Z,1102.00
2024-02-05T09:41:58.148Z,1074.00
2024-02-05T09:42:58.193Z,1049.00
2024-02-05T09:43:58.131Z,1019.00
2024-02-05T09:44:58.466Z,985.00
2024-02-05T09:45:58.302Z,960.00
2024-02-05T09:46:58.283Z,928.00
2024-02-05T09:47:58.461Z,899.00
2024-02-05T09:48:58.502Z,875.00
2024-02-05T09:49:58.598Z,836.00
2024-02-05T09:51:00.183Z,830.00
2024-02-05T09:51:58.609Z,808.00
2024-02-05T09:52:58.653Z,778.00
2024-02-05T09:54:10.122Z,742.00
2024-02-05T09:55:00.079Z,711.00
2024-02-05T09:55:58.892Z,687.00
2024-02-05T09:56:58.727Z,665.00
2024-02-05T09:57:58.780Z,681.00
2024-02-05T09:59:00.046Z,682.00
2024-02-05T09:59:58.864Z,693.00
2024-02-05T10:00:58.838Z,667.00
2024-02-05T10:01:58.782Z,659.00
2024-02-05T10:02:58.829Z,665.00
2024-02-05T10:03:58.774Z,666.00
2024-02-05T10:04:58.821Z,669.00
2024-02-05T10:05:59.188Z,673.00
2024-02-05T10:06:58.819Z,666.00
2024-02-05T10:07:58.775Z,663.00
2024-02-05T10:08:58.779Z,663.00
2024-02-05T10:09:58.785Z,658.00
2024-02-05T10:10:58.744Z,653.00
2024-02-05T10:11:58.775Z,651.00
2024-02-05T10:12:58.751Z,645.00
2024-02-05T10:13:58.745Z,644.00
2024-02-05T10:14:58.980Z,642.00
2024-02-05T10:15:58.796Z,636.00
2024-02-05T10:17:01.089Z,627.00
2024-02-05T10:17:59.034Z,627.00
2024-02-05T10:18:58.840Z,628.00
2024-02-05T10:19:58.853Z,634.00
2024-02-05T10:20:59.019Z,643.00
2024-02-05T10:21:58.894Z,656.00
2024-02-05T10:22:58.773Z,666.00
2024-02-05T10:23:58.775Z,678.00
2024-02-05T10:24:59.222Z,712.00
2024-02-05T10:25:58.776Z,726.00
2024-02-05T10:26:58.855Z,753.00
2024-02-05T10:27:58.828Z,783.00
2024-02-05T10:28:58.774Z,801.00
2024-02-05T10:30:01.130Z,823.00
2024-02-05T10:30:59.005Z,824.00
2024-02-05T10:31:58.822Z,831.00
2024-02-05T10:32:58.906Z,848.00
2024-02-05T10:33:59.125Z,887.00
2024-02-05T10:34:58.802Z,921.00
2024-02-05T10:36:01.944Z,942.00
2024-02-05T10:36:58.776Z,944.00
2024-02-05T10:37:58.805Z,951.00
2024-02-05T10:38:58.809Z,963.00
2024-02-05T10:39:58.997Z,985.00
2024-02-05T10:40:58.953Z,1023.00
2024-02-05T10:41:58.795Z,1037.00
2024-02-05T10:42:58.840Z,1057.00
2024-02-05T10:43:58.785Z,1068.00
2024-02-05T10:44:58.789Z,1089.00
2024-02-05T10:45:58.868Z,1112.00
2024-02-05T10:46:58.797Z,1120.00
2024-02-05T10:47:58.920Z,1137.00
2024-02-05T10:48:58.879Z,1145.00
2024-02-05T10:49:58.911Z,1158.00
2024-02-05T10:50:58.862Z,1143.00
2024-02-05T10:51:59.146Z,1135.00
2024-02-05T10:52:58.793Z,1130.00
2024-02-05T10:53:58.823Z,1115.00
2024-02-05T10:54:58.874Z,1101.00
2024-02-05T10:55:58.859Z,1076.00
2024-02-05T10:56:58.841Z,1055.00
2024-02-05T10:57:58.889Z,1031.00
2024-02-05T10:59:21.657Z,995.00
2024-02-05T10:59:58.876Z,996.00
2024-02-05T11:00:58.955Z,993.00
2024-02-05T11:01:59.055Z,975.00
2024-02-05T11:02:58.887Z,962.00
2024-02-05T11:03:58.896Z,943.00
2024-02-05T11:04:59.116Z,910.00
2024-02-05T11:05:59.219Z,900.00
2024-02-05T11:06:58.941Z,871.00
2024-02-05T11:07:58.966Z,846.00
2024-02-05T11:08:58.900Z,820.00
2024-02-05T11:09:58.906Z,804.00
2024-02-05T11:10:59.007Z,764.00
2024-02-05T11:11:58.891Z,744.00
2024-02-05T11:12:59.013Z,726.00
2024-02-05T11:13:58.891Z,702.00
2024-02-05T11:14:58.915Z,684.00
2024-02-05T11:16:03.075Z,664.00
2024-02-05T11:16:58.940Z,661.00
2024-02-05T11:17:58.959Z,652.00
2024-02-05T11:18:59.132Z,652.00
2024-02-05T11:19:59.160Z,661.00
2024-02-05T11:20:58.950Z,672.00
2024-02-05T11:22:01.546Z,693.00
2024-02-05T11:22:58.988Z,686.00
2024-02-05T11:23:58.938Z,693.00
2024-02-05T11:24:59.014Z,707.00
2024-02-05T11:25:58.949Z,726.00
2024-02-05T11:26:58.992Z,754.00
2024-02-05T11:28:01.241Z,758.00
2024-02-05T11:28:59.009Z,782.00
2024-02-05T11:29:58.963Z,816.00
2024-02-05T11:30:59.035Z,859.00
2024-02-05T11:31:58.963Z,911.00
2024-02-05T11:32:59.051Z,955.00
2024-02-05T11:34:00.794Z,1001.00
2024-02-05T11:34:59.211Z,1002.00
2024-02-05T11:35:59.526Z,1008.00
2024-02-05T11:36:59.122Z,1015.00
2024-02-05T11:37:59.560Z,1015.00
2024-02-05T11:38:59.191Z,1008.00
2024-02-05T11:39:59.224Z,1005.00
2024-02-05T11:40:59.515Z,990.00
2024-02-05T11:41:59.306Z,982.00
2024-02-05T11:42:59.299Z,963.00
2024-02-05T11:43:59.291Z,966.00
2024-02-05T11:44:59.344Z,956.00
2024-02-05T11:45:59.563Z,954.00
2024-02-05T11:46:59.397Z,955.00
2024-02-05T11:47:59.444Z,957.00
2024-02-05T11:48:59.520Z,950.00
2024-02-05T11:49:59.617Z,953.00
2024-02-05T11:50:59.574Z,952.00
2024-02-05T11:51:59.549Z,943.00
2024-02-05T11:52:59.595Z,947.00
2024-02-05T11:53:59.614Z,944.00
2024-02-05T11:54:59.711Z,939.00
2024-02-05T11:55:59.743Z,935.00
2024-02-05T11:56:59.720Z,941.00
2024-02-05T11:57:59.804Z,938.00
2024-02-05T11:58:59.789Z,939.00
2024-02-05T11:59:59.848Z,930.00
2024-02-05T12:01:00.161Z,934.00
2024-02-05T12:01:59.988Z,932.00
2024-02-05T12:02:59.905Z,926.00
2024-02-05T12:03:59.972Z,923.00
2024-02-05T12:04:59.979Z,958.00
2024-02-05T12:06:00.054Z,963.00
2024-02-05T12:07:00.394Z,973.00
2024-02-05T12:08:00.161Z,974.00
2024-02-05T12:09:00.084Z,973.00
2024-02-05T12:10:00.201Z,969.00
2024-02-05T12:11:00.769Z,972.00
2024-02-05T12:12:00.198Z,981.00
2024-02-05T12:13:00.239Z,982.00
2024-02-05T12:14:00.787Z,994.00
2024-02-05T12:15:00.267Z,1011.00
2024-02-05T12:16:00.850Z,1019.00
2024-02-05T12:17:00.309Z,1024.00
2024-02-05T12:18:00.353Z,1031.00
2024-02-05T12:19:11.372Z,1021.00
2024-02-05T12:20:01.497Z,1022.00
2024-02-05T12:21:00.580Z,1021.00
2024-02-05T12:22:00.392Z,1017.00
2024-02-05T12:23:00.412Z,1028.00